Channel Islands National Park, CA

11:24 PM PDT on October 21, 2014 (GMT -0700)
East Ventura | Change Station
CLOSE
Current Station
Personal Weather Station
Location: Ventura, CA
Elevation: 259 ft
Nearby Weather Stations

Elev 259 ft 34.28 °N, 119.18 °W | Updated 4 minutes ago

Clear
Clear
61.3 °F
Feels Like 61.3 °F
N
3.8
Wind Variable Wind from NNE
Gusts 4.3 mph

Today
High -- | Low -- °F
--% Chance of Precip.
Yesterday
High -- | Low -- °F
Precip. -- in
7:06 AM 6:15 PM
Waning Crescent, 3% visible
Pressure 29.87 in
Visibility 10.0 miles
Clouds Clear
Dew Point 53 °F
Humidity 74%
Rainfall 0.00 in
Snow Depth Not available.
UV 0 out of 12
Pollen 4.20 out of 12
Ozone Good
PM2.5 Good
Flu Activity Sporadic
METAR KOXR 220551Z AUTO 04003KT 10SM CLR 17/12 A2987 RMK AO2 SLP113 T01670122 10222 20167 51009

More Conditions Fewer Conditions

Pressure 29.87 in
Visibility 10.0 miles
Clouds Clear
Dew Point 53 °F
Humidity 74%
Rainfall 0.00 in
Snow Depth Not available.
UV 0 out of 12
Pollen 4.20 out of 12
Ozone Good
PM2.5 Good
Flu Activity Sporadic
METAR KOXR 220551Z AUTO 04003KT 10SM CLR 17/12 A2987 RMK AO2 SLP113 T01670122 10222 20167 51009

More Conditions Fewer Conditions

10-Day Weather Forecast

Almanac

Astronomy

Oct. 21, 2014 Rise Set
Actual Time 7:06 AM PDT 6:15 PM PDT
Civil Twilight 6:41 AM PDT 6:40 PM PDT
Nautical Twilight 6:12 AM PDT 7:09 PM PDT
Astronomical Twilight 5:43 AM PDT 7:38 PM PDT
Moon 5:01 AM PDT (10/21) 5:07 PM PDT (10/21)
Length of Visible Light 11h 59m
Length of Day
11h 08m
Tomorrow will be 1m 59s shorter.
Waning Crescent, 3% of the Moon is Illuminated
Oct 22
Waning Crescent
Oct 23
New
Oct 30
First Quarter
Nov 6
Full
Nov 14
Last Quarter

Community

WunderPhotos

Upload Photos

1,763,885 photos uploaded!

Nearby

Air Quality

  Air Quality AQ Index Pollutant
Yesterday Good
PM2.5
Yesterday Good
OZONE
Current Good
PM2.5
Current Good
OZONE
Tuesday Good
OZONE
Tuesday Good
PM10
Wednesday Good
OZONE
Wednesday Good
PM10
Thursday Good
OZONE
Thursday Good
PM10
Friday Good
OZONE
Friday Good
PM10
Saturday Good
OZONE
Saturday Good
PM10

Snow Depth

Station Depth Elevation
Virginia Lakes Ridge 0 in 9200 ft
Leavitt Lake 1 in 9400 ft
Sonora Pass 0 in 8800 ft
Leavitt Meadows 1 in 7200 ft
Summit Meadow 1 in 9122 ft

Earthquake Activity

City Distance Mag. Time & Date
No recent earthquake activity has been reported nearby.
Minimum magnitude displayed is 2.5.

Coastal Water Temperatures

Place Temperature
Santa Monica Pier 70.0 °F
Los Angeles, CA 69.1 °F
Port San Luis, CA 66.0 °F

Nearby Weather Stations